Weather at Blue Lick Airport

Public forecast

Using degrees Fahrenheit for public forecast. Weather courtesy of forecast.io.

Closest aviation weather report (METAR) to Blue Lick Airport

Closest report is Louisville Muhammad Ali International Airport, 6.0 nm (11.1 km) NNW. Retrieved 2021/10/16 12:56 UTC (36 minutes ago):

KSDF 161256Z 29012KT 10SM CLR 12/07 A3006 RMK AO2 SLP175 T01170072

Closest aviation forecast (TAF) to Blue Lick Airport

Closest forecast is Louisville Muhammad Ali International Airport, 6.0 nm (11.1 km) NNW. Retrieved 2021/10/16 12:22 UTC (1 hour ago):

TAF KSDF 161120Z 1612/1718 31011G17KT P6SM SCT040 FM161300 30015G22KT P6SM FEW040 FM162300 28006KT P6SM SKC